Adams City, Colorado
Current Conditions -  °F | °C
As of 10:53 AM on Thursday 30 Oct 2014 (Local Time) from KDEN Reporting Station
Few Clouds Few Clouds  
Wind Chill: 54°   Ceiling: Unl
Heat Index: 54°   Visibility: 10mi
Dew Point: 25°   Wind: 5mph
Humidity: 33%   Direction: 200°SSW
Pressure: 30.39"   Gusts: NA
Location:  39.8641°N, 104.821°W
Report Text: KDEN 301653Z 20004KT 10SM FEW110 FEW220 12/M04 A3039 RMK AO2 SLP260 T01221039
Loading
Personal Weather Stations






























Interactive Weather Map
Tropical Storm Tracking
New forecast layout! Learn more

10-Day Weather Forecast

Advertisements
Track Severe Weather on mobile